• Join FlightAware (Why Join?)
  • Login
  • US Flag 
07:03PM EDT


 

Airport Tracker/Info


-or-


 

Live Flight TrackerFlight Track Log ✈ ELJ178 ✈ 30-Apr-2013 ✈ KBED - KSRQ

Flight Track Log - Related Links

Times and Time Zones

All times are in EDT time to prevent confusion due to time zone crossing. See the ELJ178 flight status page for this flight to view local times or setup timezone preferences in your user account.

Time Position Orientation Groundspeed Altitude Reporting Facility
EDT Latitude Longitude Course Direction KTS MPH feet Rate Location/Type
07:48AM 42.4667 -71.3167 236° Southwest 181 208 1,300  Level KA90
07:49AM 42.4333 -71.3833 236° Southwest 202 232 3,000 1,980 Climbing KA90
07:50AM 42.4000 -71.4667 242° Southwest 229 264 5,700 3,000 Climbing KA90
07:51AM 42.3656 -71.5436 239° Southwest 261 300 8,900 3,120 Climbing Boston Center
07:52AM 42.3581 -71.6422 264° West 280 322 11,900 3,240 Climbing Boston Center
07:53AM 42.3192 -71.7494 244° Southwest 293 337 15,400 2,940 Climbing Boston Center
07:54AM 42.2736 -71.8311 233° Southwest 304 350 17,800 2,400 Climbing Boston Center
07:55AM 42.2181 -71.9356 234° Southwest 332 382 20,300 2,520 Climbing Boston Center
07:56AM 42.1581 -72.0367 231° Southwest 344 396 22,900 2,460 Climbing Boston Center
07:57AM 42.1000 -72.1406 233° Southwest 349 402 25,300 2,100 Climbing Boston Center
07:58AM 42.0397 -72.2528 234° Southwest 360 414 27,200 1,980 Climbing Boston Center
07:59AM 41.9814 -72.3675 236° Southwest 367 422 29,300 2,160 Climbing Boston Center
08:00AM 41.9356 -72.4903 243° Southwest 372 428 31,600 2,040 Climbing Boston Center
08:01AM 41.8939 -72.6103 245° Southwest 367 422 33,400 1,800 Climbing Boston Center
08:02AM 41.8497 -72.7244 243° Southwest 361 415 35,300 1,740 Climbing Boston Center
08:03AM 41.8100 -72.8411 245° Southwest 356 410 36,900 1,380 Climbing Boston Center
08:04AM 41.7469 -72.9519 233° Southwest 367 422 38,100 1,200 Climbing Boston Center
08:05AM 41.6819 -73.0489 228° Southwest 367 422 39,300 900 Climbing Boston Center
08:06AM 41.6167 -73.1508 229° Southwest 367 422 40,000 300 Climbing Boston Center
08:07AM 41.5472 -73.2556 228° Southwest 367 422 40,000  Level Boston Center
08:09AM 41.3969 -73.4897 229° Southwest 378 435 40,000  Level New York Center
08:10AM 41.3278 -73.5947 229° Southwest 378 435 40,000  Level New York Center
08:11AM 41.2606 -73.6994 230° Southwest 373 429 40,000  Level New York Center
08:12AM 41.1914 -73.8039 229° Southwest 373 429 40,000  Level New York Center
08:13AM 41.1219 -73.9111 229° Southwest 373 429 40,000  Level New York Center
08:14AM 41.0525 -74.0150 228° Southwest 378 435 40,000  Level New York Center
08:15AM 40.9828 -74.1217 229° Southwest 378 435 40,000  Level New York Center
08:16AM 40.9025 -74.2331 226° Southwest 378 435 40,000  Level New York Center
08:17AM 40.8328 -74.3364 228° Southwest 378 435 40,000  Level New York Center
08:18AM 40.7650 -74.4397 229° Southwest 383 441 40,000  Level New York Center
08:19AM 40.7011 -74.5486 232° Southwest 383 441 40,000  Level New York Center
08:20AM 40.6353 -74.6542 231° Southwest 383 441 40,000 -60 Level New York Center
08:21AM 40.5692 -74.7597 231° Southwest 383 441 39,900  Descending New York Center
08:22AM 40.4989 -74.8622 228° Southwest 383 441 40,000  Climbing New York Center
08:23AM 40.4267 -74.9614 226° Southwest 383 441 40,000 -60 Level New York Center
08:24AM 40.3564 -75.0633 228° Southwest 383 441 39,900  Descending New York Center
08:25AM 40.2881 -75.1625 228° Southwest 378 435 40,000  Climbing New York Center
08:26AM 40.2156 -75.2639 227° Southwest 378 435 39,900  Descending New York Center
08:27AM 40.1453 -75.3600 226° Southwest 378 435 40,000  Climbing New York Center
08:28AM 40.0767 -75.4558 227° Southwest 373 429 40,000  Level New York Center
08:29AM 40.0081 -75.5542 228° Southwest 373 429 40,000  Level New York Center
08:30AM 39.9375 -75.6522 227° Southwest 373 429 40,000  Level New York Center
08:31AM 39.8708 -75.7503 228° Southwest 373 429 40,000  Level New York Center
08:32AM 39.8081 -75.8539 232° Southwest 373 429 40,000 180 Level New York Center
08:33AM 39.7408 -75.9572 230° Southwest 373 429 40,400 780 Climbing New York Center
08:34AM 39.6781 -76.0606 232° Southwest 373 429 41,600 780 Climbing New York Center
08:35AM 39.6131 -76.1608 230° Southwest 368 423 42,000 420 Climbing New York Center
08:36AM 39.5514 -76.2564 230° Southwest 368 423 42,500 480 Climbing Washington Center
08:37AM 39.4861 -76.3578 230° Southwest 368 423 43,000 240 Climbing Washington Center
08:38AM 39.4231 -76.4567 230° Southwest 373 429 43,000  Level Washington Center
08:39AM 39.3514 -76.5578 228° Southwest 373 429 43,000  Level Washington Center
08:40AM 39.2881 -76.6561 230° Southwest 368 423 43,000  Level Washington Center
08:41AM 39.2267 -76.7569 232° Southwest 373 429 43,000  Level Washington Center
08:42AM 39.1631 -76.8550 230° Southwest 373 429 43,000  Level Washington Center
08:43AM 39.1058 -76.9450 231° Southwest 373 429 43,000  Level Washington Center
08:44AM 39.0444 -77.0403 230° Southwest 368 423 43,000  Level Washington Center
08:45AM 38.9683 -77.1242 221° Southwest 368 423 43,000  Level Washington Center
08:46AM 38.8942 -77.2025 219° Southwest 362 417 43,000  Level Washington Center
08:47AM 38.8181 -77.2861 221° Southwest 362 417 43,000  Level Washington Center
08:48AM 38.7419 -77.3669 220° Southwest 357 411 43,000  Level Washington Center
08:49AM 38.6656 -77.4503 220° Southwest 357 411 43,000  Level Washington Center
08:50AM 38.5850 -77.5253 216° Southwest 356 410 43,000  Level Washington Center
08:51AM 38.4983 -77.6078 217° Southwest 356 410 43,000  Level Washington Center
08:52AM 38.4264 -77.6747 216° Southwest 356 410 43,000  Level Washington Center
08:53AM 38.3458 -77.7492 216° Southwest 363 418 43,000  Level Washington Center
08:54AM 38.2650 -77.8236 216° Southwest 363 418 43,000  Level Washington Center
08:55AM 38.1844 -77.8978 216° Southwest 363 418 43,000  Level Washington Center
08:56AM 38.1036 -77.9747 217° Southwest 363 418 43,000  Level Washington Center
08:57AM 38.0231 -78.0483 216° Southwest 363 418 43,000  Level Washington Center
08:58AM 37.9339 -78.1244 214° Southwest 363 418 43,000  Level Washington Center
08:59AM 37.8614 -78.1931 217° Southwest 363 418 43,000  Level Washington Center
09:00AM 37.7700 -78.2767 216° Southwest 363 418 43,000  Level Washington Center
09:01AM 37.6889 -78.3500 216° Southwest 363 418 43,000  Level Washington Center
09:02AM 37.6058 -78.4256 216° Southwest 368 423 43,000  Level Washington Center
09:03AM 37.5206 -78.5008 215° Southwest 368 423 43,000  Level Washington Center
09:04AM 37.4461 -78.5661 215° Southwest 368 423 43,000  Level Washington Center
09:05AM 37.3628 -78.6411 216° Southwest 368 423 43,000  Level Washington Center
09:06AM 37.2817 -78.7136 215° Southwest 368 423 43,000  Level Washington Center
09:07AM 37.1983 -78.7858 215° Southwest 368 423 43,000  Level Washington Center
09:08AM 37.1064 -78.8681 216° Southwest 363 418 43,000  Level Washington Center
09:09AM 37.0253 -78.9375 214° Southwest 363 418 43,000  Level Washington Center
09:10AM 36.9461 -79.0094 216° Southwest 363 418 43,000  Level Washington Center
09:11AM 36.8647 -79.0811 215° Southwest 363 418 43,000  Level Washington Center
09:12AM 36.7811 -79.1525 214° Southwest 363 418 43,000  Level Washington Center
09:13AM 36.7083 -79.2139 214° Southwest 358 412 43,000  Level Washington Center
09:14AM 36.6289 -79.2878 217° Southwest 358 412 43,000  Level Washington Center
09:15AM 36.5456 -79.3564 213° Southwest 364 419 43,000  Level Washington Center
09:16AM 36.4661 -79.4275 216° Southwest 364 419 43,000  Level Washington Center
09:19AM 36.2475 -79.6131 214° Southwest 348 400 43,000  Level Atlanta Center
09:20AM 36.1686 -79.6819 215° Southwest 348 400 43,000  Level Atlanta Center
09:21AM 36.0775 -79.7586 214° Southwest 354 407 43,000  Level Atlanta Center
09:22AM 35.9986 -79.8269 215° Southwest 349 402 43,000  Level Atlanta Center
09:23AM 35.9175 -79.8953 214° Southwest 354 407 43,000  Level Atlanta Center
09:24AM 35.8364 -79.9633 214° Southwest 354 407 43,000  Level Atlanta Center
09:25AM 35.7633 -80.0258 215° Southwest 359 413 43,000  Level Atlanta Center
09:26AM 35.6839 -80.0911 214° Southwest 359 413 43,000  Level Atlanta Center
09:27AM 35.5928 -80.1722 216° Southwest 364 419 43,000  Level Atlanta Center
09:28AM 35.5114 -80.2400 214° Southwest 359 413 43,000  Level Atlanta Center
09:29AM 35.4211 -80.2925 205° Southwest 359 413 43,000  Level Atlanta Center
09:30AM 35.3264 -80.3350 200° South 365 420 43,000  Level Atlanta Center
09:31AM 35.2361 -80.3822 203° Southwest 365 420 43,000  Level Atlanta Center
09:32AM 35.0875 -80.4547 202° Southwest 355 409 43,000  Level Jacksonville Center
09:33AM 34.9944 -80.5006 202° Southwest 355 409 43,000  Level Jacksonville Center
09:34AM 34.8994 -80.5489 203° Southwest 367 422 43,000  Level Jacksonville Center
09:35AM 34.8106 -80.5967 204° Southwest 356 410 43,000  Level Jacksonville Center
09:36AM 34.7197 -80.6419 202° Southwest 356 410 43,000  Level Jacksonville Center
09:37AM 34.6244 -80.6875 201° Southwest 361 415 43,000  Level Jacksonville Center
09:38AM 34.5356 -80.7275 200° South 380 437 43,000  Level Jacksonville Center
09:39AM 34.4403 -80.7728 201° Southwest 375 432 43,000  Level Jacksonville Center
09:40AM 34.3389 -80.8231 202° Southwest 370 426 43,000  Level Jacksonville Center
09:41AM 34.2500 -80.8653 201° Southwest 365 420 43,000  Level Jacksonville Center
09:42AM 34.1547 -80.9128 202° Southwest 365 420 43,000  Level Jacksonville Center
09:43AM 34.0614 -80.9572 202° Southwest 365 420 43,000  Level Jacksonville Center
09:44AM 33.9683 -81.0019 202° Southwest 365 420 43,000  Level Jacksonville Center
09:45AM 33.8814 -81.0414 201° Southwest 370 426 43,000  Level Jacksonville Center
09:46AM 33.7881 -81.0883 203° Southwest 370 426 43,000  Level Jacksonville Center
09:47AM 33.6886 -81.1403 203° Southwest 365 420 43,000  Level Jacksonville Center
09:48AM 33.5953 -81.1869 203° Southwest 365 420 43,000  Level Jacksonville Center
09:49AM 33.5042 -81.2311 202° Southwest 370 426 43,000  Level Jacksonville Center
09:50AM 33.4150 -81.2775 203° Southwest 365 420 43,000  Level Jacksonville Center
09:51AM 33.3236 -81.3214 202° Southwest 365 420 43,000  Level Jacksonville Center
09:52AM 33.2489 -81.3550 201° Southwest 365 420 43,000  Level Jacksonville Center
09:53AM 33.1389 -81.4092 202° Southwest 365 420 43,000  Level Jacksonville Center
09:54AM 33.0478 -81.4553 203° Southwest 360 414 43,000  Level Jacksonville Center
09:55AM 32.9564 -81.5014 203° Southwest 355 409 43,000  Level Jacksonville Center
09:56AM 32.8650 -81.5447 202° Southwest 355 409 43,000  Level Jacksonville Center
09:57AM 32.7736 -81.5881 202° Southwest 355 409 43,000  Level Jacksonville Center
09:58AM 32.6842 -81.6314 202° Southwest 355 409 43,000  Level Jacksonville Center
09:59AM 32.5908 -81.6744 201° Southwest 363 418 43,000  Level Jacksonville Center
10:00AM 32.5075 -81.7150 202° Southwest 358 412 43,000  Level Jacksonville Center
10:01AM 32.4058 -81.7631 202° Southwest 358 412 43,000  Level Jacksonville Center
10:02AM 32.3142 -81.7814 190° South 358 412 43,000  Level Jacksonville Center
10:03AM 32.2036 -81.8025 189° South 371 427 43,000  Level Jacksonville Center
10:04AM 32.1036 -81.8208 189° South 371 427 43,000  Level Jacksonville Center
10:05AM 32.0097 -81.8414 191° South 371 427 43,000  Level Jacksonville Center
10:06AM 31.8992 -81.8600 188° South 371 427 43,000  Level Jacksonville Center
10:07AM 31.8075 -81.8781 190° South 374 430 43,000  Level Jacksonville Center
10:08AM 31.6969 -81.8989 189° South 374 430 43,000  Level Jacksonville Center
10:09AM 31.5950 -81.9169 189° South 374 430 43,000  Level Jacksonville Center
10:10AM 31.5072 -81.9350 190° South 368 423 43,000  Level Jacksonville Center
10:11AM 31.3947 -81.9556 189° South 374 430 43,000  Level Jacksonville Center
10:12AM 31.3050 -81.9736 190° South 369 425 43,000  Level Jacksonville Center
10:13AM 31.2072 -81.9914 189° South 369 425 43,000  Level Jacksonville Center
10:14AM 31.1069 -82.0117 190° South 369 425 43,000  Level Jacksonville Center
10:15AM 31.0089 -82.0322 190° South 369 425 43,000  Level Jacksonville Center
10:16AM 30.9089 -82.0500 189° South 369 425 43,000  Level Jacksonville Center
10:17AM 30.8067 -82.0678 188° South 369 425 43,000  Level Jacksonville Center
10:18AM 30.7086 -82.0881 190° South 369 425 43,000 -300 Level Jacksonville Center
10:19AM 30.6086 -82.1058 189° South 369 425 42,400 -1,260 Descending Jacksonville Center
10:20AM 30.4939 -82.1211 187° South 374 430 40,500 -1,860 Descending Jacksonville Center
10:21AM 30.3917 -82.1389 189° South 374 430 38,700 -1,260 Descending Jacksonville Center
10:22AM 30.2894 -82.1614 191° South 369 425 38,000 -360 Descending Jacksonville Center
10:23AM 30.1872 -82.1814 190° South 369 425 38,000 -600 Level Jacksonville Center
10:24AM 30.0831 -82.1989 188° South 374 430 36,800 -1,380 Descending Jacksonville Center
10:25AM 29.9786 -82.2211 190° South 374 430 35,300 -1,440 Descending Jacksonville Center
10:26AM 29.8764 -82.2361 187° South 374 430 34,000 -960 Descending Jacksonville Center
10:27AM 29.7700 -82.2275 176° South 374 430 33,400 -1,560 Descending Jacksonville Center
10:28AM 29.6675 -82.2114 172° South 374 430 30,900 -2,520 Descending Jacksonville Center
10:29AM 29.5611 -82.2025 176° South 379 436 28,400 -2,220 Descending Jacksonville Center
10:30AM 29.4567 -82.1914 175° South 379 436 26,500 -1,800 Descending Jacksonville Center
10:31AM 29.3586 -82.1850 177° South 374 430 24,900 -1,860 Descending Jacksonville Center
10:32AM 29.2603 -82.1736 174° South 362 417 22,800 -2,280 Descending Jacksonville Center
10:33AM 29.1664 -82.1672 177° South 354 407 20,400 -2,040 Descending Jacksonville Center
10:34AM 29.0767 -82.1583 175° South 343 395 18,800 -1,740 Descending Jacksonville Center
10:35AM 28.9825 -82.1472 174° South 343 395 17,000 -1,620 Descending Jacksonville Center
10:36AM 28.9011 -82.1408 176° South 343 395 15,600 -1,620 Descending Jacksonville Center
10:38AM 28.7333 -82.1167 173° South 315 362 12,600 -1,620 Descending Tampa TRACON
10:39AM 28.6500 -82.1167 180° South 303 349 11,200 -840 Descending Tampa TRACON
10:40AM 28.5667 -82.1000 170° South 303 349 11,000 -120 Descending Tampa TRACON
10:41AM 28.4833 -82.0833 170° South 301 346 11,000 -300 Level Tampa TRACON
10:42AM 28.4000 -82.0833 180° South 302 348 10,400 -960 Descending Tampa TRACON
10:43AM 28.3000 -82.0667 172° South 290 334 9,100 -780 Descending Tampa TRACON
10:44AM 28.2500 -82.0500 164° South 285 328 9,000 -60 Descending Tampa TRACON
10:45AM 28.1500 -82.0333 172° South 285 328 9,000 -480 Level Tampa TRACON
10:46AM 28.0833 -82.0333 180° South 277 319 8,000 -1,140 Descending Tampa TRACON
10:47AM 28.0000 -82.0167 170° South 277 319 6,800 -1,020 Descending Tampa TRACON
10:48AM 27.9333 -82.0500 204° Southwest 262 302 6,000 -420 Descending Tampa TRACON
10:49AM 27.8833 -82.1167 230° Southwest 271 312 6,000  Level Tampa TRACON
10:50AM 27.8333 -82.1667 221° Southwest 265 305 6,000  Level Tampa TRACON
10:51AM 27.7667 -82.2333 222° Southwest 267 307 6,000  Level Tampa TRACON
10:52AM 27.7167 -82.2833 222° Southwest 259 298 6,000 -120 Level Tampa TRACON
10:53AM 27.6667 -82.3333 222° Southwest 254 292 5,800 -900 Descending Tampa TRACON
10:54AM 27.6333 -82.4000 241° Southwest 238 274 4,300 -900 Descending Tampa TRACON
10:55AM 27.6000 -82.4667 241° Southwest 223 257 4,000 -180 Descending Tampa TRACON
10:56AM 27.6000 -82.5333 270° West 204 235 4,000 -360 Level Tampa TRACON
10:57AM 27.5833 -82.5833 249° West 179 206 3,300 -840 Descending Tampa TRACON
10:58AM 27.5667 -82.6167 241° Southwest 162 186 2,400 -720 Descending Tampa TRACON
10:59AM 27.5333 -82.6500 222° Southwest 159 183 2,000 -240 Descending Tampa TRACON
11:00AM 27.4833 -82.6667 196° South 160 184 2,000 -180 Level Tampa TRACON
11:01AM 27.4667 -82.6333 119° Southeast 120 138 1,700 -480 Descending Tampa TRACON
11:02AM 27.4333 -82.6000 138° Southeast 119 137 1,100 -600 Descending Tampa TRACON